Terminal Aerodrome Forecast
Issued by NWS Denver/Boulder, CO

Home | Current Version | Previous Version | Text Only | Print | Product List | Glossary On
Versions: 1 2 3 4 5 6 7 8 9 10 11 12 13 14 15 16 17 18 19 20 21 22 23 24 25 26 27 28 29 30 31 32
000
FTUS45 KBOU 161200 AAA
TAFDEN
TAF AMD
KDEN 161200Z 1612/1718 04006KT P6SM SCT140 SCT200
     FM161700 03008KT P6SM SCT080 BKN120
     FM162200 04012KT P6SM VCSH SCT040 BKN080
     FM170200 08010KT P6SM VCSH SCT040 OVC080
     FM170600 15007KT P6SM SCT050 BKN080 OVC120
     FM170800 20008KT P6SM FEW060 SCT080 BKN120
     FM171500 22012KT P6SM FEW080 SCT120=

USA.gov is the U.S. government's official web portal to all federal, state and local government web resources and services.